Time;durP1;ratioP1;P1;durP2;ratioP2;P2;SDS_P1;SDS_P2;PMS_P1;PMS_P2;Temp;Humidity;BMP_temperature;BMP_pressure;BME280_temperature;BME280_humidity;BME280_pressure;Samples;Min_cycle;Max_cycle;Signal;HPM_P1;HPM_P2
2022/11/03 00:01:14;;;;;;;;;;;;;;;11.47;100.00;100557.75;4446545;32;36050;-73
2022/11/03 00:04:00;;;;;;;;;;;;;;;10.76;100.00;100559.37;4445760;32;35723;-73
2022/11/03 00:06:49;;;;;;;;;;;;;;;10.42;100.00;100556.69;4460086;32;34064;-73
2022/11/03 00:09:35;;;;;;;;;;;;;;;10.25;100.00;100550.78;4457079;32;35845;-73
2022/11/03 00:12:20;;;;;;;;;;;;;;;10.33;100.00;100545.53;4468918;32;35296;-73
2022/11/03 00:15:07;;;;;;;;;;;;;;;10.47;100.00;100545.69;4457013;32;35847;-73
2022/11/03 00:17:53;;;;;;;;;;;;;;;11.41;100.00;100541.63;4457124;32;35134;-73
2022/11/03 00:20:40;;;;;;;;;;;;;;;10.98;100.00;100545.16;4457097;32;34951;-73
2022/11/03 00:23:27;;;;;;;;;;;;;;;10.35;100.00;100546.03;4456962;32;36105;-73
2022/11/03 00:26:15;;;;;;;;;;;;;;;10.06;100.00;100547.91;4457338;32;34887;-74
2022/11/03 00:29:06;;;;;;;;;;;;;;;10.86;100.00;100541.19;4452253;32;34138;-74
2022/11/03 00:31:56;;;;;;;;;;;;;;;11.29;100.00;100543.97;4441781;32;36292;-74
2022/11/03 00:34:43;;;;;;;;;;;;;;;10.73;100.00;100553.62;4457118;32;35223;-74
2022/11/03 00:37:29;;;;;;;;;;;;;;;11.55;100.00;100552.69;4447119;32;35620;-73
2022/11/03 00:40:16;;;;;;;;;;;;;;;10.94;100.00;100540.56;4447336;32;34084;-73
2022/11/03 00:43:03;;;;;;;;;;;;;;;11.31;100.00;100541.75;4457881;32;35019;-73
2022/11/03 00:45:50;;;;;;;;;;;;;;;11.35;100.00;100542.78;4469443;32;35968;-74
2022/11/03 00:48:36;;;;;;;;;;;;;;;11.73;100.00;100545.59;4447412;32;35796;-73
2022/11/03 00:51:23;;;;;;;;;;;;;;;11.61;100.00;100541.38;4458025;32;34083;-74
2022/11/03 00:54:10;;;;;;;;;;;;;;;11.58;100.00;100541.94;4457369;32;35031;-73
2022/11/03 00:56:56;;;;;;;;;;;;;;;10.82;100.00;100538.22;4448808;32;36078;-74
2022/11/03 00:59:43;;;;;;;;;;;;;;;10.32;100.00;100543.06;4440108;32;35662;-74
2022/11/03 01:02:29;;;;;;;;;;;;;;;10.31;100.00;100541.44;4442807;32;33919;-75
2022/11/03 01:08:21;;;;;;;;;;;;;;;10.46;100.00;100537.75;4448289;32;36604;-74
2022/11/03 01:14:19;;;;;;;;;;;;;;;10.60;100.00;100538.72;4446726;32;34325;-74
2022/11/03 01:17:06;;;;;;;;;;;;;;;10.82;100.00;100529.19;4441718;32;34913;-74
2022/11/03 01:19:53;;;;;;;;;;;;;;;10.59;100.00;100534.34;4434550;32;36153;-74
2022/11/03 01:22:40;;;;;;;;;;;;;;;10.49;100.00;100531.69;4444895;32;34841;-73
2022/11/03 01:25:26;;;;;;;;;;;;;;;10.27;100.00;100519.25;4471119;32;33781;-74
2022/11/03 01:28:13;;;;;;;;;;;;;;;10.45;100.00;100522.44;4462143;32;34995;-74
2022/11/03 01:31:07;;;;;;;;;;;;;;;10.70;100.00;100510.38;4462034;32;35176;-74
2022/11/03 01:33:54;;;;;;;;;;;;;;;11.33;100.00;100512.94;4451640;32;35511;-74
2022/11/03 01:36:41;;;;;;;;;;;;;;;11.05;100.00;100517.38;4450614;32;33523;-74
2022/11/03 01:39:28;;;;;;;;;;;;;;;11.34;100.00;100511.00;4472372;32;35005;-74
2022/11/03 01:42:14;;;;;;;;;;;;;;;11.78;100.00;100516.13;4462257;32;36124;-73
2022/11/03 01:45:01;;;;;;;;;;;;;;;11.29;100.00;100513.78;4462048;32;35809;-73
2022/11/03 01:47:47;;;;;;;;;;;;;;;11.01;100.00;100516.31;4461522;32;34898;-73
2022/11/03 01:50:35;;;;;;;;;;;;;;;11.58;100.00;100517.22;4458960;32;34880;-73
2022/11/03 01:53:21;;;;;;;;;;;;;;;12.44;99.69;100516.22;4462064;32;35145;-74
2022/11/03 01:56:08;;;;;;;;;;;;;;;12.66;96.81;100515.50;4473182;32;34961;-73
2022/11/03 01:58:54;;;;;;;;;;;;;;;12.69;96.57;100521.22;4472434;32;34900;-73
2022/11/03 02:01:41;;;;;;;;;;;;;;;12.90;94.66;100505.16;4461842;32;35903;-73
2022/11/03 02:04:28;;;;;;;;;;;;;;;12.90;93.92;100504.34;4473411;32;35155;-74
2022/11/03 02:07:21;;;;;;;;;;;;;;;12.85;93.86;100496.19;4462252;32;35023;-73
2022/11/03 02:10:10;;;;;;;;;;;;;;;12.58;95.28;100511.56;4483221;32;35097;-74
2022/11/03 02:12:56;;;;;;;;;;;;;;;12.39;96.29;100508.84;4462629;32;34975;-74
2022/11/03 02:15:42;;;;;;;;;;;;;;;12.40;96.88;100504.97;4473181;32;35170;-73
2022/11/03 02:18:30;;;;;;;;;;;;;;;12.73;93.29;100507.69;4472887;32;34949;-73
2022/11/03 02:21:29;;;;;;;;;;;;;;;12.56;93.36;100503.59;4448875;32;34920;-74
2022/11/03 02:24:36;;;;;;;;;;;;;;;12.24;95.22;100514.59;4472112;32;34998;-73
2022/11/03 02:27:23;;;;;;;;;;;;;;;11.62;98.17;100510.03;4482279;32;35120;-73
2022/11/03 02:30:09;;;;;;;;;;;;;;;11.60;99.95;100522.44;4459552;32;35670;-73
2022/11/03 02:32:56;;;;;;;;;;;;;;;11.58;100.00;100521.91;4461493;32;34046;-73
2022/11/03 02:35:52;;;;;;;;;;;;;;;11.90;98.23;100518.47;4472672;32;34844;-73
2022/11/03 02:38:42;;;;;;;;;;;;;;;11.40;100.00;100518.03;4473154;32;36129;-74
2022/11/03 02:41:28;;;;;;;;;;;;;;;11.83;99.65;100526.22;4473053;32;34898;-74
2022/11/03 02:44:15;;;;;;;;;;;;;;;11.74;99.01;100522.50;4471084;32;34998;-74
2022/11/03 02:47:03;;;;;;;;;;;;;;;11.47;99.97;100521.25;4484970;32;34978;-73
2022/11/03 02:49:49;;;;;;;;;;;;;;;11.23;100.00;100513.84;4451151;32;35229;-74
2022/11/03 02:52:37;;;;;;;;;;;;;;;11.11;100.00;100507.97;4461216;32;34893;-73
2022/11/03 02:55:37;;;;;;;;;;;;;;;11.33;100.00;100512.13;4472889;32;34102;-74
2022/11/03 02:58:28;;;;;;;;;;;;;;;11.36;100.00;100506.03;4451407;32;34930;-73
2022/11/03 03:01:33;;;;;;;;;;;;;;;11.31;100.00;100503.34;4485782;32;35293;-73
2022/11/03 03:04:26;;;;;;;;;;;;;;;11.07;100.00;100501.47;4474204;32;35773;-74
2022/11/03 03:07:14;;;;;;;;;;;;;;;11.05;100.00;100500.12;4463390;32;34308;-73
2022/11/03 03:10:04;;;;;;;;;;;;;;;11.47;99.55;100507.53;4472201;32;34981;-73
2022/11/03 03:12:52;;;;;;;;;;;;;;;11.45;98.46;100501.50;4474163;32;35148;-74
2022/11/03 03:15:46;;;;;;;;;;;;;;;10.79;100.00;100497.69;4484720;32;34963;-74
2022/11/03 03:18:41;;;;;;;;;;;;;;;10.43;100.00;100505.44;4463127;32;34959;-73
2022/11/03 03:21:31;;;;;;;;;;;;;;;10.72;100.00;100500.75;4471972;32;35019;-73
2022/11/03 03:24:21;;;;;;;;;;;;;;;10.84;100.00;100499.53;4451842;32;34804;-74
2022/11/03 03:27:07;;;;;;;;;;;;;;;11.17;100.00;100504.06;4462074;32;35695;-73
2022/11/03 03:30:03;;;;;;;;;;;;;;;11.42;97.32;100496.62;4474519;32;34750;-73
2022/11/03 03:32:50;;;;;;;;;;;;;;;11.38;96.00;100498.31;4461682;32;34876;-73
2022/11/03 03:35:37;;;;;;;;;;;;;;;11.12;97.88;100495.09;4474014;32;35211;-73
2022/11/03 03:38:26;;;;;;;;;;;;;;;10.90;98.27;100493.72;4486282;32;35687;-73
2022/11/03 03:41:20;;;;;;;;;;;;;;;10.93;98.79;100492.28;4462458;32;34035;-75
2022/11/03 03:44:07;;;;;;;;;;;;;;;10.40;100.00;100495.06;4464155;32;34979;-73
2022/11/03 03:47:03;;;;;;;;;;;;;;;11.12;98.78;100501.37;4474262;32;35227;-74
2022/11/03 03:49:49;;;;;;;;;;;;;;;10.67;100.00;100498.09;4448850;32;35725;-73
2022/11/03 03:52:35;;;;;;;;;;;;;;;10.27;100.00;100491.88;4473388;32;34067;-73
2022/11/03 03:55:31;;;;;;;;;;;;;;;9.26;100.00;100499.69;4463128;32;35799;-73
2022/11/03 03:58:18;;;;;;;;;;;;;;;9.69;100.00;100502.72;4462991;32;36120;-74
2022/11/03 04:01:10;;;;;;;;;;;;;;;8.29;100.00;100503.50;4473081;32;35136;-73
2022/11/03 04:03:57;;;;;;;;;;;;;;;8.40;100.00;100504.34;4473329;32;34323;-74
2022/11/03 04:06:43;;;;;;;;;;;;;;;9.04;100.00;100513.72;4472061;32;34864;-73
2022/11/03 04:09:30;;;;;;;;;;;;;;;9.48;100.00;100517.63;4485661;32;35759;-74
2022/11/03 04:24:39;;;;;;;;;;;;;;;10.58;100.00;100519.00;4471740;32;34790;-73
2022/11/03 04:27:28;;;;;;;;;;;;;;;10.25;100.00;100510.50;4462924;32;34925;-73
2022/11/03 04:30:18;;;;;;;;;;;;;;;10.07;100.00;100497.50;4452089;32;34793;-73
2022/11/03 04:33:08;;;;;;;;;;;;;;;9.83;100.00;100498.25;4473768;32;35155;-74
2022/11/03 04:35:57;;;;;;;;;;;;;;;10.35;100.00;100501.41;4462715;32;34905;-73
2022/11/03 04:38:43;;;;;;;;;;;;;;;10.34;100.00;100502.53;4473849;32;34975;-74
2022/11/03 04:41:30;;;;;;;;;;;;;;;10.31;98.61;100505.84;4463288;32;34771;-73
2022/11/03 04:44:18;;;;;;;;;;;;;;;10.18;99.56;100510.00;4470642;32;36126;-74
2022/11/03 04:47:09;;;;;;;;;;;;;;;9.97;100.00;100509.38;4474564;32;35238;-74
2022/11/03 04:49:55;;;;;;;;;;;;;;;8.36;100.00;100510.59;4474896;32;34145;-74
2022/11/03 04:52:42;;;;;;;;;;;;;;;7.22;100.00;100514.25;4474686;32;34986;-73
2022/11/03 04:55:30;;;;;;;;;;;;;;;7.33;100.00;100512.41;4463862;32;35191;-73
2022/11/03 04:58:34;;;;;;;;;;;;;;;8.85;100.00;100502.59;4472532;32;35157;-73
2022/11/03 05:01:21;;;;;;;;;;;;;;;9.20;100.00;100511.75;4474339;32;34275;-73
2022/11/03 05:04:13;;;;;;;;;;;;;;;8.61;100.00;100515.22;4474573;32;34863;-74
2022/11/03 05:07:01;;;;;;;;;;;;;;;8.48;100.00;100516.59;4474704;32;36139;-73
2022/11/03 05:09:52;;;;;;;;;;;;;;;9.40;100.00;100508.91;4475167;32;35747;-73
2022/11/03 05:12:39;;;;;;;;;;;;;;;9.58;100.00;100512.09;4463557;32;34872;-73
2022/11/03 05:15:36;;;;;;;;;;;;;;;9.60;100.00;100512.66;4486420;32;35088;-74
2022/11/03 05:18:24;;;;;;;;;;;;;;;8.44;100.00;100521.81;4470881;32;36072;-73
2022/11/03 05:21:12;;;;;;;;;;;;;;;7.86;100.00;100516.59;4474503;32;33639;-74
2022/11/03 05:24:02;;;;;;;;;;;;;;;8.35;100.00;100515.22;4468783;32;34062;-73
2022/11/03 05:26:48;;;;;;;;;;;;;;;9.20;100.00;100517.22;4467104;32;34907;-73
2022/11/03 05:29:36;;;;;;;;;;;;;;;9.74;100.00;100519.13;4458767;32;35177;-73
2022/11/03 05:32:22;;;;;;;;;;;;;;;9.93;100.00;100512.94;4458809;32;35777;-74
2022/11/03 05:35:17;;;;;;;;;;;;;;;9.76;100.00;100522.41;4459119;32;34080;-73
2022/11/03 05:38:05;;;;;;;;;;;;;;;9.76;100.00;100514.19;4458849;32;34899;-73
2022/11/03 05:41:02;;;;;;;;;;;;;;;9.54;100.00;100513.78;4459063;32;36297;-74
2022/11/03 05:43:58;;;;;;;;;;;;;;;9.90;99.93;100522.53;4469939;32;35018;-73
2022/11/03 05:46:49;;;;;;;;;;;;;;;9.80;100.00;100520.72;4470443;32;34193;-73
2022/11/03 05:49:36;;;;;;;;;;;;;;;9.77;100.00;100521.28;4467839;32;35661;-73
2022/11/03 05:52:23;;;;;;;;;;;;;;;9.79;100.00;100515.50;4458620;32;35190;-73
2022/11/03 05:55:39;;;;;;;;;;;;;;;9.87;100.00;100520.38;4464998;32;35834;-73
2022/11/03 05:58:31;;;;;;;;;;;;;;;9.81;100.00;100516.88;4465655;32;34145;-73
2022/11/03 06:01:29;;;;;;;;;;;;;;;9.35;100.00;100536.28;4436771;32;34876;-74
2022/11/03 06:04:24;;;;;;;;;;;;;;;9.14;100.00;100551.16;4470121;32;35267;-73
2022/11/03 06:07:25;;;;;;;;;;;;;;;9.23;100.00;100547.56;4457132;32;35729;-73
2022/11/03 06:10:34;;;;;;;;;;;;;;;9.46;100.00;100545.28;4469197;32;34906;-73
2022/11/03 06:13:34;;;;;;;;;;;;;;;9.42;100.00;100555.97;4457561;32;34866;-76
2022/11/03 06:16:35;;;;;;;;;;;;;;;9.67;100.00;100560.47;4421998;32;1015913;-74
2022/11/03 06:19:25;;;;;;;;;;;;;;;9.79;100.00;100560.16;4468870;32;34914;-74
2022/11/03 06:22:20;;;;;;;;;;;;;;;10.30;100.00;100562.56;4458886;32;34059;-73
2022/11/03 06:25:10;;;;;;;;;;;;;;;10.45;100.00;100563.53;4432769;32;35031;-73
2022/11/03 06:28:03;;;;;;;;;;;;;;;10.48;100.00;100562.94;4427762;32;35851;-73
2022/11/03 06:30:52;;;;;;;;;;;;;;;10.45;100.00;100574.47;4448068;32;34926;-73
2022/11/03 06:33:40;;;;;;;;;;;;;;;10.59;100.00;100580.94;4431645;32;34294;-74
2022/11/03 06:36:28;;;;;;;;;;;;;;;10.30;100.00;100578.12;4430911;32;34963;-73
2022/11/03 06:39:19;;;;;;;;;;;;;;;10.25;100.00;100578.97;4442992;32;35285;-73
2022/11/03 06:42:12;;;;;;;;;;;;;;;10.58;100.00;100584.75;4420247;32;34804;-73
2022/11/03 06:45:01;;;;;;;;;;;;;;;10.91;100.00;100582.25;4427325;32;34203;-73
2022/11/03 06:47:50;;;;;;;;;;;;;;;10.79;100.00;100582.66;4427008;32;35859;-73
2022/11/03 06:50:36;;;;;;;;;;;;;;;10.83;100.00;100583.69;4437122;32;35059;-77
2022/11/03 06:53:32;;;;;;;;;;;;;;;10.84;100.00;100581.78;4449105;32;35183;-77
2022/11/03 06:56:19;;;;;;;;;;;;;;;10.96;100.00;100579.47;4437654;32;34345;-78
2022/11/03 06:59:08;;;;;;;;;;;;;;;10.98;100.00;100578.06;4437306;32;34856;-77
2022/11/03 07:02:00;;;;;;;;;;;;;;;11.19;100.00;100584.16;4437129;32;35201;-78
2022/11/03 07:04:47;;;;;;;;;;;;;;;10.74;100.00;100589.00;4437554;32;34284;-78
2022/11/03 07:07:35;;;;;;;;;;;;;;;10.48;100.00;100593.91;4449282;32;34124;-78
2022/11/03 07:10:24;;;;;;;;;;;;;;;10.99;100.00;100573.41;4437286;32;34933;-78
2022/11/03 07:13:15;;;;;;;;;;;;;;;11.29;100.00;100579.63;4449072;32;35799;-77
2022/11/03 07:16:02;;;;;;;;;;;;;;;11.42;100.00;100589.91;4448918;32;35317;-77
2022/11/03 07:18:51;;;;;;;;;;;;;;;11.20;100.00;100587.69;4449028;32;33677;-77
2022/11/03 07:21:43;;;;;;;;;;;;;;;11.63;100.00;100593.22;4448809;32;35529;-77
2022/11/03 07:24:49;;;;;;;;;;;;;;;11.84;100.00;100586.34;4451396;32;35051;-77
2022/11/03 07:27:37;;;;;;;;;;;;;;;12.02;100.00;100600.41;4457292;32;34795;-77
2022/11/03 07:30:32;;;;;;;;;;;;;;;11.92;100.00;100595.84;4468313;32;34018;-77
2022/11/03 07:33:20;;;;;;;;;;;;;;;12.15;100.00;100596.87;4468119;32;35745;-77
2022/11/03 07:36:09;;;;;;;;;;;;;;;12.66;100.00;100595.25;4468398;32;35193;-77
2022/11/03 07:39:02;;;;;;;;;;;;;;;12.39;100.00;100605.03;4468129;32;35740;-77
2022/11/03 07:41:49;;;;;;;;;;;;;;;12.88;100.00;100591.84;4457171;32;34806;-77
2022/11/03 07:44:36;;;;;;;;;;;;;;;12.92;99.65;100590.94;4468218;32;35013;-77
2022/11/03 07:47:26;;;;;;;;;;;;;;;13.07;98.59;100600.03;4465003;32;36200;-77
2022/11/03 07:50:14;;;;;;;;;;;;;;;12.95;99.50;100592.25;4470269;32;35309;-77
2022/11/03 07:53:02;;;;;;;;;;;;;;;13.08;99.58;100587.88;4469475;32;35127;-77
2022/11/03 07:55:52;;;;;;;;;;;;;;;13.07;100.00;100591.78;4469661;32;34910;-77
2022/11/03 07:58:39;;;;;;;;;;;;;;;13.13;100.00;100591.38;4469503;32;34968;-77
2022/11/03 08:01:28;;;;;;;;;;;;;;;13.37;99.58;100576.59;4470482;32;34623;-77
2022/11/03 08:04:34;;;;;;;24.37;12.80;;;;;;;13.33;100.00;100579.16;4458480;32;34828;-77
2022/11/03 08:07:29;;;;;;;29.77;14.50;;;;;;;13.32;100.00;100571.19;4469463;32;34642;-77
2022/11/03 08:10:16;;;;;;;31.50;15.13;;;;;;;12.87;100.00;100571.78;4481181;32;35731;-76
2022/11/03 08:13:03;;;;;;;29.95;15.82;;;;;;;12.59;100.00;100576.41;4469407;32;35476;-77
2022/11/03 08:15:50;;;;;;;32.20;16.20;;;;;;;12.97;100.00;100577.06;4481685;32;34275;-77
2022/11/03 08:18:37;;;;;;;36.00;17.17;;;;;;;13.23;100.00;100560.06;4481644;32;34299;-77
2022/11/03 08:21:27;;;;;;;39.15;21.02;;;;;;;13.36;100.00;100573.03;4480103;32;35058;-77
2022/11/03 08:24:14;;;;;;;38.75;20.98;;;;;;;13.16;100.00;100574.25;4463262;32;33669;-77
2022/11/03 08:29:56;;;;;;;;;;;;;;;13.99;100.00;100574.16;4466113;32;35637;-77
2022/11/03 08:32:44;;;;;;;;;;;;;;;13.98;99.88;100566.22;4465274;32;36146;-77
2022/11/03 08:35:30;;;;;;;;;;;;;;;13.74;100.00;100567.28;4466245;32;34961;-77
2022/11/03 08:38:23;;;;;;;;;;;;;;;13.87;100.00;100569.19;4464363;32;34116;-77
2022/11/03 08:41:10;;;;;;;;;;;;;;;13.89;100.00;100566.13;4453713;32;35842;-76
2022/11/03 08:43:58;;;;;;;;;;;;;;;13.48;100.00;100559.56;4466160;32;36153;-76
2022/11/03 08:46:45;;;;;;;;;;;;;;;13.65;100.00;100555.37;4464629;32;35127;-76
2022/11/03 08:49:38;;;;;;;;;;;;;;;13.06;100.00;100557.91;4465990;32;34827;-76
2022/11/03 08:52:27;;;;;;;;;;;;;;;13.11;100.00;100555.06;4466068;32;35477;-77
2022/11/03 08:55:19;;;;;;;;;;;;;;;13.32;100.00;100550.03;4465950;32;36157;-77
2022/11/03 08:58:05;;;;;;;;;;;;;;;13.19;100.00;100548.84;4463994;32;34905;-76
2022/11/03 09:00:53;;;;;;;;;;;;;;;13.58;100.00;100542.03;4465279;32;34079;-76
2022/11/03 09:03:39;;;;;;;;;;;;;;;12.94;100.00;100557.62;4454165;32;35010;-77
2022/11/03 09:06:26;;;;;;;;;;;;;;;13.40;100.00;100557.53;4465794;32;35256;-76
2022/11/03 09:09:16;;;;;;;;;;;;;;;12.70;100.00;100546.78;4452531;32;35726;-77
2022/11/03 09:12:22;;;;;;;;;;;;;;;13.31;100.00;100547.56;4443433;32;34930;-76
2022/11/03 09:15:09;;;;;;;;;;;;;;;13.33;100.00;100548.06;4464379;32;35701;-77
2022/11/03 09:17:56;;;;;;;;;;;;;;;13.24;100.00;100531.44;4453874;32;34870;-76
2022/11/03 09:20:44;;;;;;;;;;;;;;;13.48;100.00;100542.22;4464533;32;34477;-77
2022/11/03 09:23:33;;;;;;;;;;;;;;;13.73;100.00;100538.91;4465538;32;34153;-76
2022/11/03 09:26:31;;;;;;;;;;;;;;;13.64;100.00;100540.78;4465723;32;35855;-77
2022/11/03 09:29:18;;;;;;;;;;;;;;;13.61;100.00;100537.84;4465887;32;35207;-76
2022/11/03 09:32:05;;;;;;;;;;;;;;;13.58;100.00;100530.19;4453065;32;35804;-77
2022/11/03 09:34:52;;;;;;;;;;;;;;;13.34;100.00;100530.44;4454251;32;34088;-77
2022/11/03 09:37:38;;;;;;;;;;;;;;;13.34;100.00;100533.19;4464952;32;34718;-76
2022/11/03 09:40:25;;;;;;;;;;;;;;;13.71;100.00;100532.91;4464264;32;36232;-77
2022/11/03 09:43:13;;;;;;;;;;;;;;;13.38;100.00;100526.75;4453916;32;35842;-77
2022/11/03 09:45:59;;;;;;;;;;;;;;;13.69;100.00;100521.41;4454024;32;34984;-77
2022/11/03 09:48:46;;;;;;;;;;;;;;;13.58;100.00;100524.69;4453015;32;34526;-77
2022/11/03 09:51:34;;;;;;;;;;;;;;;13.70;100.00;100516.69;4465521;32;35240;-76
2022/11/03 09:54:26;;;;;;;;;;;;;;;13.58;100.00;100508.19;4454158;32;35396;-76
2022/11/03 09:57:14;;;;;;;;;;;;;;;13.81;100.00;100504.31;4464415;32;34190;-77
2022/11/03 10:00:02;;;;;;;;;;;;;;;13.74;100.00;100495.66;4446601;32;34910;-76
2022/11/03 10:02:55;;;;;;;;;;;;;;;14.02;100.00;100501.06;4454244;32;35199;-76
2022/11/03 10:05:46;;;;;;;;;;;;;;;13.29;100.00;100492.84;4465526;32;34875;-77
2022/11/03 10:08:34;;;;;;;;;;;;;;;13.82;100.00;100497.69;4453152;32;34013;-77
2022/11/03 10:11:23;;;;;;;;;;;;;;;13.76;100.00;100487.91;4465396;32;35926;-77
2022/11/03 10:14:12;;;;;;;;;;;;;;;13.46;100.00;100479.25;4465341;32;35209;-76
2022/11/03 10:17:01;;;;;;;;;;;;;;;13.63;100.00;100478.59;4452942;32;34902;-77
2022/11/03 10:19:48;;;;;;;;;;;;;;;13.72;100.00;100475.91;4453218;32;33638;-76
2022/11/03 10:22:36;;;;;;;;;;;;;;;13.70;100.00;100467.13;4452321;32;35827;-76
2022/11/03 10:25:42;;;;;;;;;;;;;;;13.39;100.00;100461.50;4465204;32;35277;-76
2022/11/03 10:28:30;;;;;;;;;;;;;;;13.32;100.00;100459.19;4439745;32;34850;-76
2022/11/03 10:31:18;;;;;;;;;;;;;;;13.42;100.00;100456.19;4453346;32;34110;-75
2022/11/03 10:34:25;;;;;;;;;;;;;;;13.08;100.00;100456.63;4465278;32;34744;-77
2022/11/03 10:37:25;;;;;;;;;;;;;;;13.59;100.00;100451.97;4465147;32;35292;-77
2022/11/03 10:40:35;;;;;;;;;;;;;;;13.16;100.00;100442.16;4453514;32;35178;-76
2022/11/03 10:43:40;;;;;;;;;;;;;;;13.00;100.00;100444.41;4455316;32;34282;-76
2022/11/03 10:46:31;;;;;;;;;;;;;;;13.15;100.00;100440.53;4453745;32;35623;-77
2022/11/03 10:49:38;;;;;;;;;;;;;;;12.75;100.00;100432.03;4455621;32;36161;-77
2022/11/03 10:52:29;;;;;;;;;;;;;;;12.76;100.00;100427.34;4453767;32;34997;-76
2022/11/03 10:55:17;;;;;;;;;;;;;;;13.25;100.00;100422.97;4465102;32;35478;-76
2022/11/03 10:58:10;;;;;;;;;;;;;;;13.18;100.00;100417.09;4453998;32;34988;-77
2022/11/03 11:01:06;;;;;;;;;;;;;;;13.23;100.00;100419.72;4464638;32;35149;-77
2022/11/03 11:03:54;;;;;;;;;;;;;;;13.26;100.00;100419.13;4442403;32;34872;-77
2022/11/03 11:06:40;;;;;;;;;;;;;;;13.59;100.00;100416.19;4453111;32;34137;-77
2022/11/03 11:09:27;;;;;;;;;;;;;;;13.23;100.00;100404.03;4464435;32;34438;-77
2022/11/03 11:12:13;;;;;;;;;;;;;;;13.24;100.00;100394.66;4452501;32;35227;-76
2022/11/03 11:15:01;;;;;;;;;;;;;;;12.99;100.00;100398.78;4458939;32;34976;-76
2022/11/03 11:17:48;;;;;;;;;;;;;;;13.19;100.00;100393.94;4451396;32;33826;-77
2022/11/03 11:20:42;;;;;;;;;;;;;;;13.14;100.00;100388.56;4448490;32;35252;-77
2022/11/03 11:23:27;;;;;;;;;;;;;;;13.46;100.00;100391.16;4446066;32;36121;-78
2022/11/03 11:26:15;;;;;;;;;;;;;;;13.59;100.00;100380.38;4459905;32;34986;-77
2022/11/03 11:32:34;;;;;;;;;;;;;;;12.97;100.00;100372.69;4462858;32;35436;-77
2022/11/03 11:35:26;;;;;;;;;;;;;;;12.98;100.00;100366.91;4400801;32;34844;-77
2022/11/03 11:38:31;;;;;;;;;;;;;;;13.01;100.00;100363.53;4465071;32;35121;-78
2022/11/03 11:41:19;;;;;;;;;;;;;;;13.08;100.00;100359.53;4453398;32;34961;-77
2022/11/03 11:44:25;;;;;;;;;;;;;;;13.33;100.00;100355.41;4451427;32;34855;-78
2022/11/03 11:47:26;;;;;;;;;;;;;;;12.85;100.00;100353.19;4456451;32;33782;-78
2022/11/03 11:50:14;;;;;;;;;;;;;;;13.32;100.00;100351.84;4460316;32;35632;-78
2022/11/03 11:53:06;;;;;;;;;;;;;;;13.43;100.00;100347.72;4463921;32;34030;-78
2022/11/03 11:55:58;;;;;;;;;;;;;;;13.49;100.00;100335.47;4465902;32;33947;-78
2022/11/03 11:58:55;;;;;;;;;;;;;;;12.92;100.00;100342.56;4459118;32;35898;-75
2022/11/03 12:01:43;;;;;;;;;;;;;;;13.20;100.00;100332.28;4440121;32;34624;-75
2022/11/03 12:04:32;;;;;;;;;;;;;;;13.35;100.00;100320.94;4449554;32;32137;-76
2022/11/03 12:07:33;;;;;;;;;;;;;;;13.53;100.00;100313.62;4448798;32;35031;-76
2022/11/03 12:10:27;;;;;;;;;;;;;;;13.13;100.00;100321.72;4449839;32;35795;-75
2022/11/03 12:13:33;;;;;;;;;;;;;;;13.15;100.00;100318.63;4441579;32;34955;-76
2022/11/03 12:16:27;;;;;;;;;;;;;;;13.13;100.00;100307.97;4440321;32;33884;-75
2022/11/03 12:19:36;;;;;;;;;;;;;;;12.94;100.00;100305.37;4447863;32;34535;-75
2022/11/03 12:22:28;;;;;;;;;;;;;;;13.33;100.00;100303.12;4451662;32;36764;-76
2022/11/03 12:25:33;;;;;;;;;;;;;;;13.54;100.00;100304.22;4450362;32;33254;-76
2022/11/03 12:28:32;;;;;;;;;;;;;;;13.51;100.00;100293.84;4458591;31;34042;-76
2022/11/03 12:31:18;;;;;;;;;;;;;;;13.54;100.00;100286.88;4447683;32;35488;-75
2022/11/03 12:34:09;;;;;;;;;;;;;;;13.74;100.00;100283.59;4449157;32;36519;-75
2022/11/03 12:36:57;;;;;;;;;;;;;;;13.54;100.00;100289.66;4447508;32;35967;-76
2022/11/03 12:39:45;;;;;;;;;;;;;;;13.66;100.00;100284.34;4450159;32;33364;-76
2022/11/03 12:42:32;;;;;;;;;;;;;;;13.60;100.00;100274.63;4449125;32;35119;-76
2022/11/03 12:45:20;;;;;;;;;;;;;;;13.44;100.00;100277.78;4448706;32;36761;-76
2022/11/03 12:48:08;;;;;;;;;;;;;;;13.66;100.00;100274.19;4446976;32;35237;-76
2022/11/03 12:50:55;;;;;;;;;;;;;;;13.53;100.00;100263.25;4436122;32;34708;-75
2022/11/03 12:53:45;;;;;;;;;;;;;;;13.76;100.00;100262.06;4447122;32;33412;-75
2022/11/03 12:56:33;;;;;;;;;;;;;;;13.79;100.00;100261.44;4430721;32;35108;-76
2022/11/03 12:59:19;;;;;;;;;;;;;;;13.39;100.00;100264.13;4445940;32;34567;-76
2022/11/03 13:02:10;;;;;;;;;;;;;;;12.75;100.00;100263.44;4448834;32;33690;-76
2022/11/03 13:04:57;;;;;;;;;;;;;;;13.41;100.00;100258.34;4441176;32;35422;-75
2022/11/03 13:07:48;;;;;;;;;;;;;;;13.77;100.00;100257.37;4452508;32;35928;-75
2022/11/03 13:10:40;;;;;;;;;;;;;;;13.79;100.00;100257.87;4451583;32;36994;-75
2022/11/03 13:13:30;;;;;;;;;;;;;;;13.61;100.00;100251.47;4440919;32;34801;-75
2022/11/03 13:16:23;;;;;;;;;;;;;;;13.84;100.00;100250.28;4451610;32;35294;-75
2022/11/03 13:22:14;;;;;;;;;;;;;;;13.89;100.00;100239.12;4449027;32;34964;-76
2022/11/03 13:25:05;;;;;;;;;;;;;;;13.48;100.00;100234.72;4462100;32;33565;-76
2022/11/03 13:27:55;;;;;;;;;;;;;;;14.01;100.00;100223.94;4464051;31;34469;-76
2022/11/03 13:30:44;;;;;;;;;;;;;;;13.41;100.00;100226.09;4464462;31;35197;-75
2022/11/03 13:33:31;;;;;;;;;;;;;;;13.78;100.00;100218.50;4464361;32;35047;-75
2022/11/03 13:36:21;;;;;;;;;;;;;;;13.81;100.00;100228.88;4464012;31;33691;-75
2022/11/03 13:39:16;;;;;;;;;;;;;;;13.83;100.00;100223.03;4454448;32;35751;-75
2022/11/03 13:42:03;;;;;;;;;;;;;;;13.59;100.00;100213.22;4465206;32;34878;-75
2022/11/03 13:44:55;;;;;;;;;;;;;;;13.79;100.00;100219.31;4444013;32;35516;-75
2022/11/03 13:47:47;;;;;;;;;;;;;;;13.71;100.00;100220.88;4454663;32;33722;-76
2022/11/03 13:50:55;;;;;;;;;;;;;;;13.71;100.00;100215.38;4464721;32;35250;-75
2022/11/03 13:53:46;;;;;;;;;;;;;;;13.27;100.00;100217.13;4464449;32;34955;-76
2022/11/03 13:56:52;;;;;;;;;;;;;;;13.61;100.00;100213.72;4464891;31;35067;-76
2022/11/03 14:00:08;;;;;;;;;;;;;;;13.26;100.00;100215.47;4466502;32;34016;-75
2022/11/03 14:03:01;;;;;;;;;;;;;;;13.43;100.00;100217.53;4465237;32;35072;-76
2022/11/03 14:06:14;;;;;;;;;;;;;;;13.46;100.00;100209.47;4464548;31;34257;-76
2022/11/03 14:09:01;;;;;;;;;;;;;;;13.31;100.00;100206.28;4455567;32;35110;-76
2022/11/03 14:15:01;;;;;;;;;;;;;;;12.91;100.00;100209.72;4464605;32;34472;-76
2022/11/03 14:18:06;;;;;;;;;;;;;;;13.21;100.00;100197.16;4455173;32;34874;-76
2022/11/03 14:20:59;;;;;;;;;;;;;;;13.23;100.00;100199.56;4456920;32;34973;-75
2022/11/03 14:23:48;;;;;;;;;;;;;;;13.46;100.00;100200.38;4462365;31;33771;-76
2022/11/03 14:26:35;;;;;;;;;;;;;;;13.55;100.00;100194.91;4453764;32;34546;-76
2022/11/03 14:29:30;;;;;;;;;;;;;;;13.49;100.00;100197.00;4462894;31;34743;-75
2022/11/03 14:32:21;;;;;;;;;;;;;;;13.18;100.00;100194.22;4460378;31;35889;-76
2022/11/03 14:35:16;;;;;;;;;;;;;;;13.37;100.00;100194.81;4455295;32;34713;-73
2022/11/03 14:38:07;;;;;;;;;;;;;;;12.75;100.00;100200.22;4463794;32;34261;-73
2022/11/03 14:44:02;;;;;;;;;;;;;;;12.89;100.00;100195.47;4466159;31;34919;-74
2022/11/03 14:46:53;;;;;;;;;;;;;;;12.47;100.00;100188.53;4468502;32;34117;-73
2022/11/03 14:49:43;;;;;;;;;;;;;;;13.08;100.00;100197.22;4468024;32;34907;-73
2022/11/03 14:52:29;;;;;;;;;;;;;;;13.02;100.00;100197.34;4475298;31;35197;-74
2022/11/03 14:55:17;;;;;;;;;;;;;;;12.94;100.00;100189.84;4465068;32;34828;-73
2022/11/03 14:58:06;;;;;;;;;;;;;;;12.61;100.00;100186.53;4475625;31;34901;-73